createdAt,value
2022-07-31T00:00:08.561Z,15.00
2022-07-31T00:02:55.478Z,14.90
2022-07-31T00:05:23.902Z,15.00
2022-07-31T00:07:52.761Z,14.90
2022-07-31T00:10:20.008Z,15.00
2022-07-31T00:12:47.082Z,14.90
2022-07-31T00:15:13.987Z,14.90
2022-07-31T00:17:42.534Z,14.90
2022-07-31T00:20:15.227Z,14.90
2022-07-31T00:22:43.623Z,14.90
2022-07-31T00:25:12.440Z,14.90
2022-07-31T00:27:40.076Z,14.90
2022-07-31T00:30:07.746Z,14.90
2022-07-31T00:32:35.418Z,14.90
2022-07-31T00:35:02.699Z,14.90
2022-07-31T00:37:29.568Z,14.90
2022-07-31T00:39:56.683Z,14.90
2022-07-31T00:42:25.206Z,14.90
2022-07-31T00:44:52.846Z,14.90
2022-07-31T00:47:24.004Z,14.90
2022-07-31T00:49:53.124Z,14.90
2022-07-31T00:52:20.757Z,14.90
2022-07-31T00:54:47.777Z,14.90
2022-07-31T00:57:15.341Z,14.90
2022-07-31T00:59:43.748Z,14.90
2022-07-31T01:02:11.549Z,14.90
2022-07-31T01:04:41.728Z,14.90
2022-07-31T01:07:09.487Z,14.90
2022-07-31T01:09:36.824Z,14.90
2022-07-31T01:12:18.747Z,14.90
2022-07-31T01:14:56.938Z,14.90
2022-07-31T01:17:26.559Z,14.90
2022-07-31T01:19:54.974Z,14.90
2022-07-31T01:22:43.719Z,14.90
2022-07-31T01:25:33.127Z,14.90
2022-07-31T01:28:10.174Z,14.90
2022-07-31T01:30:41.990Z,14.90
2022-07-31T01:33:14.411Z,14.90
2022-07-31T01:35:45.789Z,14.90
2022-07-31T01:38:21.774Z,14.90
2022-07-31T01:40:57.884Z,14.90
2022-07-31T01:43:33.813Z,14.90
2022-07-31T01:46:03.392Z,14.90
2022-07-31T01:48:32.817Z,14.90
2022-07-31T01:51:02.836Z,14.90
2022-07-31T01:53:31.410Z,14.90
2022-07-31T01:56:03.624Z,14.90
2022-07-31T01:58:35.635Z,14.90
2022-07-31T02:01:04.506Z,14.90
2022-07-31T02:03:44.050Z,14.90
2022-07-31T02:06:17.812Z,14.90
2022-07-31T02:08:51.152Z,14.80
2022-07-31T02:11:21.449Z,14.90
2022-07-31T02:13:51.251Z,14.80
2022-07-31T02:16:19.722Z,14.80
2022-07-31T02:18:49.583Z,14.80
2022-07-31T02:21:17.848Z,14.80
2022-07-31T02:23:44.904Z,14.90
2022-07-31T02:26:13.117Z,14.80
2022-07-31T02:28:42.771Z,14.80
2022-07-31T02:31:12.980Z,14.80
2022-07-31T02:33:42.358Z,14.80
2022-07-31T02:36:11.652Z,14.80
2022-07-31T02:38:40.669Z,14.80
2022-07-31T02:41:09.297Z,14.80
2022-07-31T02:43:37.055Z,14.80
2022-07-31T02:46:05.802Z,14.80
2022-07-31T02:48:33.183Z,14.80
2022-07-31T02:51:00.538Z,14.80
2022-07-31T02:53:28.491Z,14.80
2022-07-31T02:55:56.170Z,14.80
2022-07-31T02:58:23.308Z,14.80
2022-07-31T03:01:02.550Z,14.80
2022-07-31T03:03:29.793Z,14.80
2022-07-31T03:05:57.165Z,14.80
2022-07-31T03:08:24.433Z,14.80
2022-07-31T03:10:51.914Z,14.80
2022-07-31T03:13:20.718Z,14.80
2022-07-31T03:15:50.800Z,14.70
2022-07-31T03:18:20.816Z,14.80
2022-07-31T03:20:51.894Z,14.80
2022-07-31T03:23:22.218Z,14.70
2022-07-31T03:25:50.602Z,14.70
2022-07-31T03:28:19.595Z,14.70
2022-07-31T03:30:56.281Z,14.70
2022-07-31T03:33:24.110Z,14.70
2022-07-31T03:35:53.195Z,14.70
2022-07-31T03:38:39.689Z,14.70
2022-07-31T03:41:07.553Z,14.70
2022-07-31T03:43:44.023Z,14.70
2022-07-31T03:46:18.617Z,14.60
2022-07-31T03:48:46.216Z,14.70
2022-07-31T03:51:14.067Z,14.60
2022-07-31T03:53:42.632Z,14.60
2022-07-31T03:56:11.496Z,14.60
2022-07-31T03:58:38.918Z,14.60
2022-07-31T04:01:10.605Z,14.60
2022-07-31T04:03:39.106Z,14.60
2022-07-31T04:06:05.976Z,14.60
2022-07-31T04:08:33.886Z,14.60
2022-07-31T04:11:00.741Z,14.60
2022-07-31T04:13:28.564Z,14.60
2022-07-31T04:15:55.659Z,14.60
2022-07-31T04:18:22.571Z,14.60
2022-07-31T04:20:49.562Z,14.60
2022-07-31T04:23:16.935Z,14.60
2022-07-31T04:25:43.920Z,14.60
2022-07-31T04:28:11.121Z,14.60
2022-07-31T04:30:39.261Z,14.60
2022-07-31T04:33:06.346Z,14.60
2022-07-31T04:35:33.441Z,14.50
2022-07-31T04:38:00.675Z,14.50
2022-07-31T04:40:27.679Z,14.50
2022-07-31T04:42:55.377Z,14.50
2022-07-31T04:45:22.492Z,14.50
2022-07-31T04:47:49.388Z,14.50
2022-07-31T04:50:16.284Z,14.50
2022-07-31T04:52:43.443Z,14.50
2022-07-31T04:55:10.539Z,14.50
2022-07-31T04:57:37.841Z,14.50
2022-07-31T05:00:06.693Z,14.50
2022-07-31T05:02:33.729Z,14.50
2022-07-31T05:05:00.618Z,14.50
2022-07-31T05:07:29.034Z,14.50
2022-07-31T05:09:56.944Z,14.50
2022-07-31T05:12:23.894Z,14.50
2022-07-31T05:14:51.430Z,14.50
2022-07-31T05:17:18.310Z,14.50
2022-07-31T05:19:45.194Z,14.50
2022-07-31T05:22:12.502Z,14.40
2022-07-31T05:24:40.606Z,14.50
2022-07-31T05:27:07.559Z,14.50
2022-07-31T05:29:34.676Z,14.50
2022-07-31T05:32:02.250Z,14.40
2022-07-31T05:34:30.535Z,14.40
2022-07-31T05:37:02.124Z,14.40
2022-07-31T05:39:29.832Z,14.40
2022-07-31T05:41:56.933Z,14.40
2022-07-31T05:44:24.728Z,14.40
2022-07-31T05:49:19.369Z,14.40
2022-07-31T05:51:46.951Z,14.40
2022-07-31T05:54:14.248Z,14.40
2022-07-31T05:56:41.257Z,14.40
2022-07-31T05:59:09.701Z,14.40
2022-07-31T06:01:36.923Z,14.40
2022-07-31T06:04:04.046Z,14.40
2022-07-31T06:06:31.285Z,14.40
2022-07-31T06:09:03.795Z,14.50
2022-07-31T06:11:31.827Z,14.50
2022-07-31T06:13:59.184Z,14.50
2022-07-31T06:16:26.147Z,14.50
2022-07-31T06:18:53.031Z,14.50
2022-07-31T06:23:46.030Z,14.50
2022-07-31T06:26:13.287Z,14.50
2022-07-31T06:28:48.907Z,14.50
2022-07-31T06:31:20.836Z,14.50
2022-07-31T06:33:49.642Z,14.50
2022-07-31T06:36:17.830Z,14.40
2022-07-31T06:38:44.704Z,14.40
2022-07-31T06:41:11.906Z,14.40
2022-07-31T06:43:38.779Z,14.40
2022-07-31T06:46:05.642Z,14.40
2022-07-31T06:48:32.720Z,14.30
2022-07-31T06:51:30.409Z,14.40
2022-07-31T06:53:46.979Z,14.30
2022-07-31T06:56:13.870Z,14.40
2022-07-31T06:58:40.766Z,14.40
2022-07-31T07:01:07.922Z,14.40
2022-07-31T07:03:34.815Z,14.40
2022-07-31T07:06:03.501Z,14.40
2022-07-31T07:08:30.664Z,14.50
2022-07-31T07:10:57.669Z,14.50
2022-07-31T07:13:44.892Z,14.50
2022-07-31T07:16:14.831Z,14.60
2022-07-31T07:18:43.412Z,14.60
2022-07-31T07:21:11.177Z,14.70
2022-07-31T07:23:39.326Z,14.60
2022-07-31T07:26:06.947Z,14.70
2022-07-31T07:28:34.150Z,14.70
2022-07-31T07:31:01.985Z,14.70
2022-07-31T07:33:39.968Z,14.70
2022-07-31T07:36:23.097Z,14.70
2022-07-31T07:38:54.820Z,14.80
2022-07-31T07:41:25.885Z,14.80
2022-07-31T07:43:53.507Z,14.70
2022-07-31T07:46:23.925Z,14.70
2022-07-31T07:48:51.782Z,14.70
2022-07-31T07:51:19.670Z,14.80
2022-07-31T07:53:46.826Z,14.80
2022-07-31T07:56:14.013Z,14.80
2022-07-31T07:58:41.034Z,14.80
2022-07-31T08:01:08.221Z,14.80
2022-07-31T08:03:50.031Z,14.90
2022-07-31T08:06:23.301Z,14.90
2022-07-31T08:08:50.609Z,14.90
2022-07-31T08:11:18.050Z,15.00
2022-07-31T08:13:50.666Z,15.00
2022-07-31T08:16:22.181Z,15.00
2022-07-31T08:18:49.896Z,15.00
2022-07-31T08:21:17.226Z,14.90
2022-07-31T08:23:44.368Z,14.90
2022-07-31T08:26:11.559Z,14.90
2022-07-31T08:28:40.087Z,14.90
2022-07-31T08:31:08.861Z,14.90
2022-07-31T08:33:37.093Z,14.90
2022-07-31T08:36:04.861Z,14.90
2022-07-31T08:38:31.931Z,14.90
2022-07-31T08:40:58.903Z,14.90
2022-07-31T08:44:00.722Z,14.80
2022-07-31T08:46:13.555Z,14.80
2022-07-31T08:48:41.789Z,14.90
2022-07-31T08:51:11.690Z,14.80
2022-07-31T08:53:39.963Z,14.80
2022-07-31T08:56:09.184Z,14.80
2022-07-31T08:58:39.589Z,14.80
2022-07-31T09:01:11.046Z,14.80
2022-07-31T09:03:38.673Z,14.70
2022-07-31T09:06:06.403Z,14.80
2022-07-31T09:08:37.992Z,14.70
2022-07-31T09:11:06.963Z,14.70
2022-07-31T09:13:35.015Z,14.70
2022-07-31T09:16:02.637Z,14.70
2022-07-31T09:18:30.215Z,14.70
2022-07-31T09:21:02.415Z,14.70
2022-07-31T09:23:30.292Z,14.80
2022-07-31T09:26:02.631Z,14.70
2022-07-31T09:28:33.728Z,14.80
2022-07-31T09:31:01.496Z,14.80
2022-07-31T09:33:30.417Z,14.80
2022-07-31T09:35:59.838Z,14.80
2022-07-31T09:38:34.947Z,14.90
2022-07-31T09:41:58.113Z,14.90
2022-07-31T09:44:15.670Z,14.90
2022-07-31T09:46:46.674Z,14.90
2022-07-31T09:49:14.452Z,14.90
2022-07-31T09:51:46.981Z,15.00
2022-07-31T09:54:24.840Z,14.90
2022-07-31T09:56:52.367Z,14.90
2022-07-31T09:59:19.840Z,15.00
2022-07-31T10:01:51.470Z,14.90
2022-07-31T10:04:20.003Z,15.00
2022-07-31T10:06:52.000Z,14.90
2022-07-31T10:09:20.890Z,14.90
2022-07-31T10:11:50.178Z,14.90
2022-07-31T10:14:24.117Z,14.90
2022-07-31T10:16:56.284Z,14.90
2022-07-31T10:19:25.774Z,14.90
2022-07-31T10:21:57.802Z,14.90
2022-07-31T10:24:30.181Z,14.90
2022-07-31T10:27:08.084Z,14.90
2022-07-31T10:29:39.281Z,14.90
2022-07-31T10:32:07.856Z,15.00
2022-07-31T10:34:36.389Z,15.00
2022-07-31T10:37:11.642Z,15.00
2022-07-31T10:40:04.814Z,15.00
2022-07-31T10:43:20.478Z,15.00
2022-07-31T10:45:53.247Z,15.00
2022-07-31T10:48:20.895Z,15.00
2022-07-31T10:50:49.375Z,15.00
2022-07-31T10:53:18.133Z,15.00
2022-07-31T10:55:45.590Z,15.10
2022-07-31T10:58:16.682Z,15.20
2022-07-31T11:00:43.941Z,15.20
2022-07-31T11:03:22.109Z,15.10
2022-07-31T11:06:00.848Z,15.20
2022-07-31T11:08:45.436Z,15.10
2022-07-31T11:11:15.474Z,15.20
2022-07-31T11:13:50.778Z,15.20
2022-07-31T11:16:18.949Z,15.30
2022-07-31T11:19:03.941Z,15.30
2022-07-31T11:21:41.849Z,15.30
2022-07-31T11:24:20.619Z,15.30
2022-07-31T11:26:55.426Z,15.40
2022-07-31T11:29:59.902Z,15.40
2022-07-31T11:32:22.879Z,15.40
2022-07-31T11:34:57.236Z,15.40
2022-07-31T11:37:26.588Z,15.40
2022-07-31T11:40:13.926Z,15.40
2022-07-31T11:42:44.608Z,15.40
2022-07-31T11:45:12.717Z,15.50
2022-07-31T11:48:13.515Z,15.50
2022-07-31T11:50:40.373Z,15.50
2022-07-31T11:53:07.511Z,15.50
2022-07-31T11:55:45.291Z,15.60
2022-07-31T11:58:12.560Z,15.50
2022-07-31T12:00:39.630Z,15.50
2022-07-31T12:03:08.952Z,15.50
2022-07-31T12:05:45.174Z,15.50
2022-07-31T12:08:13.203Z,15.50
2022-07-31T12:10:41.048Z,15.50
2022-07-31T12:13:16.562Z,15.50
2022-07-31T12:16:08.023Z,15.50
2022-07-31T12:18:56.967Z,15.40
2022-07-31T12:21:33.253Z,15.50
2022-07-31T12:24:00.857Z,15.50
2022-07-31T12:26:32.455Z,15.50
2022-07-31T12:29:06.327Z,15.50
2022-07-31T12:31:46.754Z,15.60
2022-07-31T12:34:29.719Z,15.60
2022-07-31T12:37:11.334Z,15.60
2022-07-31T12:40:00.135Z,15.60
2022-07-31T12:42:31.708Z,15.70
2022-07-31T12:45:18.393Z,15.70
2022-07-31T12:47:52.249Z,15.80
2022-07-31T12:50:24.482Z,15.70
2022-07-31T12:52:51.875Z,15.70
2022-07-31T12:55:19.643Z,15.70
2022-07-31T12:57:51.660Z,15.70
2022-07-31T13:00:22.820Z,15.70
2022-07-31T13:02:51.243Z,15.60
2022-07-31T13:05:18.386Z,15.50
2022-07-31T13:07:45.752Z,15.50
2022-07-31T13:10:19.067Z,15.50
2022-07-31T13:12:52.473Z,15.50
2022-07-31T13:15:29.813Z,15.50
2022-07-31T13:17:58.647Z,15.60
2022-07-31T13:20:25.779Z,15.60
2022-07-31T13:22:52.791Z,15.50
2022-07-31T13:25:20.267Z,15.50
2022-07-31T13:27:47.909Z,15.60
2022-07-31T13:30:16.264Z,15.60
2022-07-31T13:32:43.375Z,15.60
2022-07-31T13:35:24.283Z,15.60
2022-07-31T13:37:55.855Z,15.60
2022-07-31T13:40:42.855Z,15.60
2022-07-31T13:43:10.108Z,15.70
2022-07-31T13:45:37.196Z,15.70
2022-07-31T13:48:08.914Z,15.70
2022-07-31T13:50:40.175Z,15.80
2022-07-31T13:53:07.821Z,15.90
2022-07-31T13:55:35.011Z,15.90
2022-07-31T13:58:02.358Z,15.90
2022-07-31T14:00:30.793Z,15.90
2022-07-31T14:02:58.418Z,15.90
2022-07-31T14:05:27.686Z,15.90
2022-07-31T14:07:56.199Z,15.80
2022-07-31T14:10:29.726Z,15.80
2022-07-31T14:12:56.795Z,15.70
2022-07-31T14:15:26.312Z,15.70
2022-07-31T14:17:58.374Z,15.80
2022-07-31T14:20:25.929Z,15.70
2022-07-31T14:22:53.446Z,15.70
2022-07-31T14:25:20.899Z,15.80
2022-07-31T14:27:47.883Z,15.80
2022-07-31T14:30:19.791Z,15.80
2022-07-31T14:32:48.387Z,15.70
2022-07-31T14:35:15.494Z,15.70
2022-07-31T14:37:42.640Z,15.70
2022-07-31T14:40:10.609Z,15.70
2022-07-31T14:42:37.595Z,15.70
2022-07-31T14:45:07.172Z,15.70
2022-07-31T14:47:35.071Z,15.70
2022-07-31T14:50:09.049Z,15.60
2022-07-31T14:52:38.291Z,15.60
2022-07-31T14:55:05.830Z,15.70
2022-07-31T14:57:32.761Z,15.70
2022-07-31T15:00:00.280Z,15.70
2022-07-31T15:02:27.512Z,15.80
2022-07-31T15:04:55.596Z,15.80
2022-07-31T15:07:43.816Z,15.70
2022-07-31T15:10:11.479Z,15.80
2022-07-31T15:12:38.885Z,15.80
2022-07-31T15:15:07.240Z,15.80
2022-07-31T15:17:34.215Z,15.90
2022-07-31T15:20:01.765Z,15.80
2022-07-31T15:22:28.698Z,15.80
2022-07-31T15:24:56.074Z,15.70
2022-07-31T15:27:25.233Z,15.70
2022-07-31T15:30:03.517Z,15.70
2022-07-31T15:32:38.060Z,15.70
2022-07-31T15:35:11.251Z,15.70
2022-07-31T15:37:40.521Z,15.70
2022-07-31T15:40:09.709Z,15.70
2022-07-31T15:42:40.445Z,15.70
2022-07-31T15:45:16.402Z,15.70
2022-07-31T15:47:44.843Z,15.70
2022-07-31T15:50:18.846Z,15.70
2022-07-31T15:52:46.573Z,15.80
2022-07-31T15:55:14.213Z,15.80
2022-07-31T15:57:41.379Z,15.80
2022-07-31T16:00:14.176Z,15.80
2022-07-31T16:02:42.566Z,15.80
2022-07-31T16:05:12.084Z,15.90
2022-07-31T16:08:30.917Z,15.90
2022-07-31T16:10:36.338Z,15.90
2022-07-31T16:13:03.830Z,16.00
2022-07-31T16:15:32.029Z,16.00
2022-07-31T16:17:58.929Z,16.00
2022-07-31T16:20:27.716Z,16.00
2022-07-31T16:22:57.068Z,16.00
2022-07-31T16:25:26.165Z,16.00
2022-07-31T16:27:54.150Z,15.90
2022-07-31T16:30:22.155Z,15.90
2022-07-31T16:32:49.946Z,15.90
2022-07-31T16:35:17.070Z,16.00
2022-07-31T16:37:51.269Z,15.90
2022-07-31T16:40:28.876Z,15.90
2022-07-31T16:43:46.859Z,15.90
2022-07-31T16:45:56.169Z,16.00
2022-07-31T16:48:23.649Z,15.90
2022-07-31T16:50:54.195Z,15.90
2022-07-31T16:54:10.690Z,15.90
2022-07-31T16:56:16.038Z,16.00
2022-07-31T16:58:44.247Z,15.90
2022-07-31T17:01:54.045Z,15.90
2022-07-31T17:04:03.608Z,15.90
2022-07-31T17:06:37.975Z,15.80
2022-07-31T17:09:16.713Z,15.90
2022-07-31T17:11:47.466Z,15.90
2022-07-31T17:14:16.285Z,15.90
2022-07-31T17:16:47.086Z,15.90
2022-07-31T17:19:42.762Z,15.90
2022-07-31T17:22:04.818Z,15.80
2022-07-31T17:24:32.249Z,15.90
2022-07-31T17:26:59.819Z,16.00
2022-07-31T17:29:26.907Z,16.00
2022-07-31T17:31:54.033Z,16.10
2022-07-31T17:34:20.896Z,16.10
2022-07-31T17:36:50.204Z,16.20
2022-07-31T17:39:17.490Z,16.10
2022-07-31T17:41:44.582Z,16.20
2022-07-31T17:44:11.690Z,16.20
2022-07-31T17:46:48.104Z,16.20
2022-07-31T17:49:20.299Z,16.20
2022-07-31T17:51:58.679Z,16.20
2022-07-31T17:54:28.265Z,16.20
2022-07-31T17:56:55.491Z,16.20
2022-07-31T17:59:23.198Z,16.20
2022-07-31T18:01:52.353Z,16.20
2022-07-31T18:04:21.197Z,16.30
2022-07-31T18:06:54.532Z,16.20
2022-07-31T18:09:23.450Z,16.10
2022-07-31T18:11:51.987Z,16.10
2022-07-31T18:14:19.341Z,16.00
2022-07-31T18:16:47.807Z,15.90
2022-07-31T18:19:15.270Z,15.80
2022-07-31T18:21:42.383Z,15.80
2022-07-31T18:24:09.770Z,15.70
2022-07-31T18:26:37.465Z,15.60
2022-07-31T18:29:05.097Z,15.60
2022-07-31T18:31:35.425Z,15.50
2022-07-31T18:34:04.900Z,15.50
2022-07-31T18:36:35.533Z,15.40
2022-07-31T18:39:04.487Z,15.30
2022-07-31T18:41:34.100Z,15.30
2022-07-31T18:44:01.421Z,15.30
2022-07-31T18:46:28.977Z,15.10
2022-07-31T18:48:56.786Z,15.10
2022-07-31T18:51:28.995Z,15.00
2022-07-31T18:53:56.682Z,15.00
2022-07-31T18:56:24.828Z,15.00
2022-07-31T18:58:53.005Z,15.00
2022-07-31T19:01:20.623Z,15.00
2022-07-31T19:03:47.863Z,15.10
2022-07-31T19:06:15.174Z,15.00
2022-07-31T19:08:42.291Z,15.10
2022-07-31T19:11:09.366Z,15.10
2022-07-31T19:13:36.321Z,15.10
2022-07-31T19:16:04.240Z,15.10
2022-07-31T19:18:31.137Z,15.10
2022-07-31T19:21:21.161Z,15.10
2022-07-31T19:23:46.451Z,15.00
2022-07-31T19:26:13.621Z,15.10
2022-07-31T19:28:43.119Z,15.00
2022-07-31T19:31:11.675Z,15.10
2022-07-31T19:33:38.786Z,15.00
2022-07-31T19:36:06.343Z,15.00
2022-07-31T19:38:35.851Z,14.90
2022-07-31T19:41:03.467Z,14.90
2022-07-31T19:43:30.555Z,14.90
2022-07-31T19:46:10.712Z,14.90
2022-07-31T19:48:46.712Z,14.90
2022-07-31T19:51:18.415Z,14.70
2022-07-31T19:53:45.909Z,14.70
2022-07-31T19:56:18.311Z,14.70
2022-07-31T19:58:48.333Z,14.70
2022-07-31T20:01:15.623Z,14.60
2022-07-31T20:03:42.691Z,14.70
2022-07-31T20:06:10.422Z,14.60
2022-07-31T20:08:37.639Z,14.60
2022-07-31T20:11:05.582Z,14.60
2022-07-31T20:13:34.304Z,14.60
2022-07-31T20:16:01.571Z,14.50
2022-07-31T20:18:30.508Z,14.50
2022-07-31T20:21:03.572Z,14.50
2022-07-31T20:23:31.351Z,14.50
2022-07-31T20:25:58.752Z,14.50
2022-07-31T20:28:26.055Z,14.40
2022-07-31T20:30:53.159Z,14.30
2022-07-31T20:33:20.581Z,14.20
2022-07-31T20:35:50.360Z,14.20
2022-07-31T20:38:18.875Z,14.10
2022-07-31T20:40:54.344Z,14.00
2022-07-31T20:43:23.911Z,13.90
2022-07-31T20:45:51.738Z,13.90
2022-07-31T20:48:18.994Z,13.80
2022-07-31T20:50:47.896Z,13.70
2022-07-31T20:53:17.350Z,13.70
2022-07-31T20:55:49.723Z,13.70
2022-07-31T20:58:21.292Z,13.60
2022-07-31T21:00:49.442Z,13.60
2022-07-31T21:03:17.563Z,13.60
2022-07-31T21:05:46.032Z,13.60
2022-07-31T21:08:13.119Z,13.50
2022-07-31T21:10:40.411Z,13.50
2022-07-31T21:13:08.258Z,13.50
2022-07-31T21:15:44.193Z,13.50
2022-07-31T21:18:13.789Z,13.50
2022-07-31T21:20:52.375Z,13.60
2022-07-31T21:23:25.052Z,13.60
2022-07-31T21:25:53.884Z,13.50
2022-07-31T21:28:21.856Z,13.50
2022-07-31T21:30:49.252Z,13.50
2022-07-31T21:33:18.271Z,13.40
2022-07-31T21:35:46.906Z,13.40
2022-07-31T21:38:15.763Z,13.40
2022-07-31T21:40:43.227Z,13.40
2022-07-31T21:43:11.725Z,13.40
2022-07-31T21:45:50.779Z,13.40
2022-07-31T21:48:25.893Z,13.40
2022-07-31T21:50:54.085Z,13.40
2022-07-31T21:53:21.263Z,13.40
2022-07-31T21:55:48.673Z,13.40
2022-07-31T21:58:15.885Z,13.30
2022-07-31T22:00:44.001Z,13.30
2022-07-31T22:03:11.311Z,13.20
2022-07-31T22:05:57.005Z,13.20
2022-07-31T22:08:24.299Z,13.20
2022-07-31T22:10:52.320Z,13.10
2022-07-31T22:13:20.108Z,13.10
2022-07-31T22:15:55.335Z,13.00
2022-07-31T22:18:33.306Z,13.00
2022-07-31T22:21:03.464Z,12.90
2022-07-31T22:23:30.749Z,12.80
2022-07-31T22:25:57.951Z,12.80
2022-07-31T22:28:26.927Z,12.70
2022-07-31T22:30:55.189Z,12.60
2022-07-31T22:33:23.178Z,12.50
2022-07-31T22:35:58.130Z,12.40
2022-07-31T22:38:27.525Z,12.40
2022-07-31T22:40:55.099Z,12.30
2022-07-31T22:44:09.585Z,12.20
2022-07-31T22:46:11.908Z,12.30
2022-07-31T22:48:40.883Z,12.20
2022-07-31T22:51:09.092Z,12.20
2022-07-31T22:53:40.013Z,12.20
2022-07-31T22:56:06.937Z,12.20
2022-07-31T22:58:35.314Z,12.10
2022-07-31T23:01:02.659Z,12.10
2022-07-31T23:03:29.519Z,12.00
2022-07-31T23:06:02.492Z,12.10
2022-07-31T23:08:43.515Z,12.00
2022-07-31T23:11:10.399Z,12.00
2022-07-31T23:13:37.276Z,11.90
2022-07-31T23:16:06.065Z,11.90
2022-07-31T23:18:32.913Z,11.80
2022-07-31T23:21:00.105Z,11.80
2022-07-31T23:23:27.453Z,11.70
2022-07-31T23:26:11.526Z,11.60
2022-07-31T23:28:38.633Z,11.60
2022-07-31T23:31:05.512Z,11.50
2022-07-31T23:33:32.524Z,11.50
2022-07-31T23:36:00.954Z,11.50
2022-07-31T23:38:28.063Z,11.50
2022-07-31T23:40:56.387Z,11.50
2022-07-31T23:43:24.191Z,11.50
2022-07-31T23:45:51.625Z,11.50
2022-07-31T23:48:19.150Z,11.50
2022-07-31T23:50:46.365Z,11.40
2022-07-31T23:53:13.235Z,11.40
2022-07-31T23:55:42.821Z,11.40
2022-07-31T23:58:10.674Z,11.40
